sensor_id;sensor_type;location;lat;lon;timestamp;pressure;altitude;pressure_sealevel;temperature;humidity
37860;BME280;23698;52.014;5.190;2023-05-12T05:01:30;101466.91;;;12.76;100.00
37860;BME280;23698;52.014;5.190;2023-05-12T05:04:16;101470.19;;;12.87;100.00
37860;BME280;23698;52.014;5.190;2023-05-12T05:07:04;101470.25;;;12.93;100.00
37860;BME280;23698;52.014;5.190;2023-05-12T05:09:51;101470.38;;;13.07;100.00
37860;BME280;23698;52.014;5.190;2023-05-12T05:12:38;101461.84;;;13.10;100.00
37860;BME280;23698;52.014;5.190;2023-05-12T06:04:33;101473.22;;;13.85;100.00
37860;BME280;23698;52.014;5.190;2023-05-12T06:07:19;101474.91;;;14.14;100.00
37860;BME280;23698;52.014;5.190;2023-05-12T06:10:07;101459.25;;;14.64;100.00
37860;BME280;23698;52.014;5.190;2023-05-12T06:12:53;101459.03;;;14.59;100.00
37860;BME280;23698;52.014;5.190;2023-05-12T06:15:39;101453.59;;;14.72;100.00
37860;BME280;23698;52.014;5.190;2023-05-12T06:18:26;101449.84;;;14.73;100.00
37860;BME280;23698;52.014;5.190;2023-05-12T06:21:13;101459.75;;;14.88;100.00
37860;BME280;23698;52.014;5.190;2023-05-12T06:24:00;101464.81;;;14.91;100.00
37860;BME280;23698;52.014;5.190;2023-05-12T06:26:46;101466.34;;;15.34;100.00
37860;BME280;23698;52.014;5.190;2023-05-12T06:29:32;101472.41;;;15.16;100.00
37860;BME280;23698;52.014;5.190;2023-05-12T06:32:19;101475.31;;;14.94;100.00
37860;BME280;23698;52.014;5.190;2023-05-12T06:35:05;101477.84;;;15.02;100.00
37860;BME280;23698;52.014;5.190;2023-05-12T06:37:53;101477.88;;;15.16;100.00
37860;BME280;23698;52.014;5.190;2023-05-12T06:40:39;101477.63;;;14.97;100.00
37860;BME280;23698;52.014;5.190;2023-05-12T06:43:26;101482.09;;;15.12;100.00
37860;BME280;23698;52.014;5.190;2023-05-12T07:03:23;101487.19;;;15.68;100.00
37860;BME280;23698;52.014;5.190;2023-05-12T07:07:11;101499.38;;;15.59;100.00
37860;BME280;23698;52.014;5.190;2023-05-12T07:29:00;101508.00;;;16.09;100.00
37860;BME280;23698;52.014;5.190;2023-05-12T07:32:59;101505.16;;;16.56;100.00
37860;BME280;23698;52.014;5.190;2023-05-12T07:36:45;101512.13;;;16.58;100.00
37860;BME280;23698;52.014;5.190;2023-05-12T07:40:34;101521.78;;;16.61;100.00
37860;BME280;23698;52.014;5.190;2023-05-12T08:21:45;101542.75;;;18.83;100.00
37860;BME280;23698;52.014;5.190;2023-05-12T08:25:56;101550.84;;;18.16;100.00
37860;BME280;23698;52.014;5.190;2023-05-12T08:30:24;101559.81;;;19.22;100.00
37860;BME280;23698;52.014;5.190;2023-05-12T08:42:42;101581.63;;;20.55;100.00
37860;BME280;23698;52.014;5.190;2023-05-12T08:45:28;101609.97;;;19.36;100.00
37860;BME280;23698;52.014;5.190;2023-05-12T08:48:16;101614.19;;;19.81;100.00
37860;BME280;23698;52.014;5.190;2023-05-12T08:51:05;101627.72;;;19.83;100.00
37860;BME280;23698;52.014;5.190;2023-05-12T08:53:54;101635.88;;;20.43;100.00
37860;BME280;23698;52.014;5.190;2023-05-12T08:57:00;101647.22;;;20.35;100.00
37860;BME280;23698;52.014;5.190;2023-05-12T09:14:51;101673.00;;;19.50;100.00
37860;BME280;23698;52.014;5.190;2023-05-12T09:19:20;101671.75;;;19.83;100.00
37860;BME280;23698;52.014;5.190;2023-05-12T09:24:10;101671.88;;;20.30;100.00
37860;BME280;23698;52.014;5.190;2023-05-12T09:37:39;101695.59;;;20.00;100.00
37860;BME280;23698;52.014;5.190;2023-05-12T09:46:44;101708.84;;;20.64;100.00
37860;BME280;23698;52.014;5.190;2023-05-12T09:50:50;101708.72;;;21.06;100.00
37860;BME280;23698;52.014;5.190;2023-05-12T09:54:25;101701.56;;;21.58;100.00
37860;BME280;23698;52.014;5.190;2023-05-12T09:57:20;101710.16;;;20.97;100.00
37860;BME280;23698;52.014;5.190;2023-05-12T10:00:13;101710.97;;;21.21;100.00
37860;BME280;23698;52.014;5.190;2023-05-12T10:03:22;101729.66;;;21.43;100.00
37860;BME280;23698;52.014;5.190;2023-05-12T10:06:13;101728.84;;;21.07;100.00
37860;BME280;23698;52.014;5.190;2023-05-12T10:09:03;101727.28;;;20.87;100.00
37860;BME280;23698;52.014;5.190;2023-05-12T10:11:53;101722.66;;;21.64;100.00
37860;BME280;23698;52.014;5.190;2023-05-12T10:14:49;101742.25;;;21.03;100.00
37860;BME280;23698;52.014;5.190;2023-05-12T13:05:13;101803.84;;;25.99;100.00
37860;BME280;23698;52.014;5.190;2023-05-12T13:08:00;101809.72;;;25.13;100.00
37860;BME280;23698;52.014;5.190;2023-05-12T13:10:47;101795.84;;;24.48;100.00
37860;BME280;23698;52.014;5.190;2023-05-12T13:13:34;101809.66;;;24.43;100.00
37860;BME280;23698;52.014;5.190;2023-05-12T13:16:21;101807.50;;;23.56;100.00
37860;BME280;23698;52.014;5.190;2023-05-12T13:19:08;101804.09;;;24.16;100.00
37860;BME280;23698;52.014;5.190;2023-05-12T13:21:56;101803.47;;;25.28;100.00
37860;BME280;23698;52.014;5.190;2023-05-12T13:24:43;101797.00;;;26.38;100.00
37860;BME280;23698;52.014;5.190;2023-05-12T13:27:29;101793.69;;;25.68;100.00
37860;BME280;23698;52.014;5.190;2023-05-12T13:30:16;101795.94;;;24.85;100.00
37860;BME280;23698;52.014;5.190;2023-05-12T13:33:02;101799.25;;;23.62;100.00
37860;BME280;23698;52.014;5.190;2023-05-12T13:35:50;101795.03;;;24.20;100.00
37860;BME280;23698;52.014;5.190;2023-05-12T13:38:38;101796.63;;;23.72;100.00
37860;BME280;23698;52.014;5.190;2023-05-12T13:41:24;101797.78;;;24.75;100.00
37860;BME280;23698;52.014;5.190;2023-05-12T13:44:11;101800.00;;;24.78;100.00
37860;BME280;23698;52.014;5.190;2023-05-12T13:46:58;101794.88;;;24.59;100.00
37860;BME280;23698;52.014;5.190;2023-05-12T13:49:44;101800.97;;;25.26;100.00
37860;BME280;23698;52.014;5.190;2023-05-12T13:52:30;101798.28;;;25.99;100.00
37860;BME280;23698;52.014;5.190;2023-05-12T13:55:18;101802.28;;;25.18;100.00
37860;BME280;23698;52.014;5.190;2023-05-12T13:58:05;101794.47;;;26.26;100.00
37860;BME280;23698;52.014;5.190;2023-05-12T14:00:52;101795.97;;;25.28;100.00
37860;BME280;23698;52.014;5.190;2023-05-12T14:03:38;101794.22;;;25.17;100.00
37860;BME280;23698;52.014;5.190;2023-05-12T14:06:26;101788.72;;;25.22;100.00
37860;BME280;23698;52.014;5.190;2023-05-12T14:09:12;101792.88;;;25.24;100.00
37860;BME280;23698;52.014;5.190;2023-05-12T14:12:00;101797.78;;;25.12;100.00
37860;BME280;23698;52.014;5.190;2023-05-12T14:14:46;101791.84;;;25.31;100.00
37860;BME280;23698;52.014;5.190;2023-05-12T14:17:34;101788.94;;;26.21;100.00
37860;BME280;23698;52.014;5.190;2023-05-12T14:20:20;101787.28;;;25.19;100.00
37860;BME280;23698;52.014;5.190;2023-05-12T14:23:06;101787.84;;;25.59;100.00
37860;BME280;23698;52.014;5.190;2023-05-12T14:26:05;101800.66;;;24.85;100.00
37860;BME280;23698;52.014;5.190;2023-05-12T14:28:53;101798.56;;;25.02;100.00
37860;BME280;23698;52.014;5.190;2023-05-12T14:31:40;101795.69;;;25.72;100.00
37860;BME280;23698;52.014;5.190;2023-05-12T14:34:26;101798.38;;;26.25;100.00
37860;BME280;23698;52.014;5.190;2023-05-12T14:37:12;101802.25;;;25.56;100.00
37860;BME280;23698;52.014;5.190;2023-05-12T14:39:59;101796.56;;;25.83;98.04
37860;BME280;23698;52.014;5.190;2023-05-12T14:42:45;101798.66;;;24.80;100.00
37860;BME280;23698;52.014;5.190;2023-05-12T14:49:11;101805.53;;;26.00;100.00
37860;BME280;23698;52.014;5.190;2023-05-12T14:52:01;101808.50;;;25.31;100.00
37860;BME280;23698;52.014;5.190;2023-05-12T14:54:48;101805.56;;;25.53;100.00
37860;BME280;23698;52.014;5.190;2023-05-12T14:57:35;101810.63;;;25.66;100.00
37860;BME280;23698;52.014;5.190;2023-05-12T15:04:29;101811.19;;;25.68;100.00
37860;BME280;23698;52.014;5.190;2023-05-12T15:11:10;101809.16;;;27.71;96.20
37860;BME280;23698;52.014;5.190;2023-05-12T15:13:56;101809.53;;;26.46;100.00
37860;BME280;23698;52.014;5.190;2023-05-12T15:16:42;101801.72;;;25.16;100.00
37860;BME280;23698;52.014;5.190;2023-05-12T15:19:30;101802.47;;;25.06;100.00
37860;BME280;23698;52.014;5.190;2023-05-12T15:22:16;101800.22;;;25.03;100.00
37860;BME280;23698;52.014;5.190;2023-05-12T15:25:06;101786.22;;;26.78;100.00
37860;BME280;23698;52.014;5.190;2023-05-12T15:27:53;101787.25;;;28.53;94.85
37860;BME280;23698;52.014;5.190;2023-05-12T15:30:39;101790.47;;;29.34;83.76
37860;BME280;23698;52.014;5.190;2023-05-12T15:33:26;101782.53;;;29.17;79.45
37860;BME280;23698;52.014;5.190;2023-05-12T15:36:16;101784.94;;;27.61;93.47
37860;BME280;23698;52.014;5.190;2023-05-12T15:39:05;101790.94;;;26.62;100.00
37860;BME280;23698;52.014;5.190;2023-05-12T15:41:55;101782.78;;;26.19;100.00
37860;BME280;23698;52.014;5.190;2023-05-12T15:44:43;101775.66;;;26.74;96.45
37860;BME280;23698;52.014;5.190;2023-05-12T15:47:30;101785.94;;;26.74;100.00
37860;BME280;23698;52.014;5.190;2023-05-12T15:50:18;101788.47;;;28.81;92.44
37860;BME280;23698;52.014;5.190;2023-05-12T15:57:37;101789.38;;;28.72;77.60
37860;BME280;23698;52.014;5.190;2023-05-12T16:00:23;101794.72;;;28.97;74.66
37860;BME280;23698;52.014;5.190;2023-05-12T16:03:12;101787.16;;;30.00;68.37
37860;BME280;23698;52.014;5.190;2023-05-12T16:06:02;101793.34;;;28.60;73.10
37860;BME280;23698;52.014;5.190;2023-05-12T16:08:49;101792.84;;;28.88;69.66
37860;BME280;23698;52.014;5.190;2023-05-12T16:11:36;101793.88;;;28.68;71.32
37860;BME280;23698;52.014;5.190;2023-05-12T16:14:24;101789.72;;;29.96;63.62
37860;BME280;23698;52.014;5.190;2023-05-12T16:17:11;101802.56;;;29.25;69.77
37860;BME280;23698;52.014;5.190;2023-05-12T16:19:58;101820.09;;;25.75;100.00
37860;BME280;23698;52.014;5.190;2023-05-12T16:22:45;101815.97;;;23.50;100.00
37860;BME280;23698;52.014;5.190;2023-05-12T16:25:32;101759.84;;;20.25;100.00
37860;BME280;23698;52.014;5.190;2023-05-12T16:28:19;101764.47;;;19.01;100.00
37860;BME280;23698;52.014;5.190;2023-05-12T16:31:07;101740.59;;;18.45;100.00
37860;BME280;23698;52.014;5.190;2023-05-12T16:33:53;101755.66;;;18.36;100.00
37860;BME280;23698;52.014;5.190;2023-05-12T16:36:39;101748.19;;;18.18;100.00
37860;BME280;23698;52.014;5.190;2023-05-12T16:39:31;101747.75;;;18.21;100.00
37860;BME280;23698;52.014;5.190;2023-05-12T16:42:20;101742.13;;;18.09;100.00
37860;BME280;23698;52.014;5.190;2023-05-12T16:45:07;101755.06;;;18.34;100.00
37860;BME280;23698;52.014;5.190;2023-05-12T16:47:56;101749.16;;;18.30;100.00
37860;BME280;23698;52.014;5.190;2023-05-12T16:50:42;101761.00;;;18.24;100.00
37860;BME280;23698;52.014;5.190;2023-05-12T16:53:29;101757.78;;;18.34;100.00
37860;BME280;23698;52.014;5.190;2023-05-12T17:01:33;101759.78;;;18.52;100.00
37860;BME280;23698;52.014;5.190;2023-05-12T17:04:33;101775.63;;;18.49;100.00
37860;BME280;23698;52.014;5.190;2023-05-12T17:07:20;101775.00;;;19.04;100.00
37860;BME280;23698;52.014;5.190;2023-05-12T17:10:07;101777.69;;;19.11;100.00
37860;BME280;23698;52.014;5.190;2023-05-12T17:12:54;101772.78;;;18.95;100.00
37860;BME280;23698;52.014;5.190;2023-05-12T17:15:40;101780.03;;;19.33;100.00
37860;BME280;23698;52.014;5.190;2023-05-12T17:18:26;101791.03;;;19.70;100.00
37860;BME280;23698;52.014;5.190;2023-05-12T17:21:14;101793.88;;;19.82;100.00
37860;BME280;23698;52.014;5.190;2023-05-12T17:24:01;101795.53;;;20.01;100.00
37860;BME280;23698;52.014;5.190;2023-05-12T17:26:48;101806.16;;;20.58;100.00
37860;BME280;23698;52.014;5.190;2023-05-12T17:29:34;101812.88;;;20.20;100.00
37860;BME280;23698;52.014;5.190;2023-05-12T17:32:21;101806.66;;;20.55;100.00
37860;BME280;23698;52.014;5.190;2023-05-12T17:35:09;101809.06;;;20.63;100.00
37860;BME280;23698;52.014;5.190;2023-05-12T17:37:56;101807.69;;;20.84;100.00
37860;BME280;23698;52.014;5.190;2023-05-12T17:40:42;101811.41;;;21.02;100.00
37860;BME280;23698;52.014;5.190;2023-05-12T17:43:29;101824.31;;;20.66;100.00
37860;BME280;23698;52.014;5.190;2023-05-12T17:46:15;101833.44;;;20.78;100.00
37860;BME280;23698;52.014;5.190;2023-05-12T17:49:02;101838.22;;;20.71;100.00
37860;BME280;23698;52.014;5.190;2023-05-12T17:51:48;101844.00;;;20.81;100.00
37860;BME280;23698;52.014;5.190;2023-05-12T17:54:37;101840.09;;;20.40;100.00
37860;BME280;23698;52.014;5.190;2023-05-12T17:57:23;101848.59;;;20.08;100.00
37860;BME280;23698;52.014;5.190;2023-05-12T18:00:10;101852.06;;;19.85;100.00
37860;BME280;23698;52.014;5.190;2023-05-12T18:02:59;101857.94;;;19.89;100.00
37860;BME280;23698;52.014;5.190;2023-05-12T18:05:46;101864.78;;;19.11;100.00
37860;BME280;23698;52.014;5.190;2023-05-12T18:08:33;101864.41;;;19.76;100.00
37860;BME280;23698;52.014;5.190;2023-05-12T18:11:21;101867.94;;;20.20;100.00
37860;BME280;23698;52.014;5.190;2023-05-12T18:14:07;101877.75;;;20.77;100.00
37860;BME280;23698;52.014;5.190;2023-05-12T18:16:54;101877.94;;;20.14;100.00
37860;BME280;23698;52.014;5.190;2023-05-12T18:19:42;101880.59;;;20.40;100.00
37860;BME280;23698;52.014;5.190;2023-05-12T18:22:29;101881.56;;;20.75;100.00
37860;BME280;23698;52.014;5.190;2023-05-12T18:25:15;101885.69;;;20.85;100.00
37860;BME280;23698;52.014;5.190;2023-05-12T18:28:06;101886.63;;;20.79;100.00
37860;BME280;23698;52.014;5.190;2023-05-12T18:30:52;101882.16;;;20.66;100.00
37860;BME280;23698;52.014;5.190;2023-05-12T18:33:45;101876.09;;;20.57;100.00
37860;BME280;23698;52.014;5.190;2023-05-12T18:36:32;101875.13;;;20.51;100.00
37860;BME280;23698;52.014;5.190;2023-05-12T18:39:19;101880.28;;;20.29;100.00
37860;BME280;23698;52.014;5.190;2023-05-12T18:42:07;101864.53;;;20.36;100.00
37860;BME280;23698;52.014;5.190;2023-05-12T18:44:56;101874.56;;;20.31;100.00
37860;BME280;23698;52.014;5.190;2023-05-12T18:47:42;101868.53;;;20.22;100.00
37860;BME280;23698;52.014;5.190;2023-05-12T18:50:29;101871.50;;;20.21;100.00
37860;BME280;23698;52.014;5.190;2023-05-12T18:53:15;101869.59;;;20.21;100.00
37860;BME280;23698;52.014;5.190;2023-05-12T18:56:02;101865.78;;;20.04;100.00
37860;BME280;23698;52.014;5.190;2023-05-12T18:58:48;101881.13;;;19.74;100.00
37860;BME280;23698;52.014;5.190;2023-05-12T19:08:39;101893.75;;;19.57;100.00
37860;BME280;23698;52.014;5.190;2023-05-12T19:11:26;101888.50;;;19.30;100.00
37860;BME280;23698;52.014;5.190;2023-05-12T19:14:13;101900.22;;;19.26;100.00
37860;BME280;23698;52.014;5.190;2023-05-12T19:17:01;101899.91;;;19.09;100.00
37860;BME280;23698;52.014;5.190;2023-05-12T19:19:48;101897.50;;;19.19;100.00
37860;BME280;23698;52.014;5.190;2023-05-12T19:22:34;101906.31;;;18.96;100.00
37860;BME280;23698;52.014;5.190;2023-05-12T19:25:22;101910.09;;;19.01;100.00
37860;BME280;23698;52.014;5.190;2023-05-12T19:28:09;101914.22;;;19.17;100.00
37860;BME280;23698;52.014;5.190;2023-05-12T19:30:56;101927.16;;;19.10;100.00
37860;BME280;23698;52.014;5.190;2023-05-12T19:33:42;101923.53;;;18.84;100.00
37860;BME280;23698;52.014;5.190;2023-05-12T19:36:29;101917.88;;;18.66;100.00
37860;BME280;23698;52.014;5.190;2023-05-12T19:39:16;101922.19;;;18.94;100.00
37860;BME280;23698;52.014;5.190;2023-05-12T19:42:05;101924.28;;;18.53;100.00
37860;BME280;23698;52.014;5.190;2023-05-12T19:44:51;101928.06;;;18.07;100.00
37860;BME280;23698;52.014;5.190;2023-05-12T19:47:38;101927.56;;;18.30;100.00
37860;BME280;23698;52.014;5.190;2023-05-12T19:50:27;101923.16;;;18.22;100.00
37860;BME280;23698;52.014;5.190;2023-05-12T19:53:14;101921.47;;;18.21;100.00
37860;BME280;23698;52.014;5.190;2023-05-12T19:56:00;101924.44;;;18.20;100.00
37860;BME280;23698;52.014;5.190;2023-05-12T19:58:49;101933.91;;;18.30;100.00
37860;BME280;23698;52.014;5.190;2023-05-12T20:24:30;101945.66;;;17.86;100.00
37860;BME280;23698;52.014;5.190;2023-05-12T20:27:16;101947.28;;;17.73;100.00
37860;BME280;23698;52.014;5.190;2023-05-12T20:30:03;101953.22;;;17.64;100.00
37860;BME280;23698;52.014;5.190;2023-05-12T20:32:50;101952.38;;;17.23;100.00
37860;BME280;23698;52.014;5.190;2023-05-12T20:35:37;101954.50;;;17.21;100.00
37860;BME280;23698;52.014;5.190;2023-05-12T20:38:23;101939.94;;;17.61;100.00
37860;BME280;23698;52.014;5.190;2023-05-12T20:41:11;101952.31;;;18.17;100.00
37860;BME280;23698;52.014;5.190;2023-05-12T20:43:57;101949.63;;;18.03;100.00
37860;BME280;23698;52.014;5.190;2023-05-12T20:46:44;101949.81;;;17.75;100.00
37860;BME280;23698;52.014;5.190;2023-05-12T20:49:32;101951.75;;;17.41;100.00
37860;BME280;23698;52.014;5.190;2023-05-12T20:52:19;101949.63;;;17.43;100.00
37860;BME280;23698;52.014;5.190;2023-05-12T20:55:06;101948.78;;;17.36;100.00
37860;BME280;23698;52.014;5.190;2023-05-12T20:57:55;101957.03;;;17.43;100.00
37860;BME280;23698;52.014;5.190;2023-05-12T21:00:42;101958.06;;;17.48;100.00
37860;BME280;23698;52.014;5.190;2023-05-12T21:03:29;101947.94;;;17.62;100.00
37860;BME280;23698;52.014;5.190;2023-05-12T21:06:16;101964.84;;;17.46;100.00
37860;BME280;23698;52.014;5.190;2023-05-12T21:09:03;101955.53;;;17.40;100.00
37860;BME280;23698;52.014;5.190;2023-05-12T21:11:49;101961.44;;;17.50;100.00
37860;BME280;23698;52.014;5.190;2023-05-12T21:14:37;101955.31;;;17.42;100.00
37860;BME280;23698;52.014;5.190;2023-05-12T21:17:24;101966.28;;;17.42;100.00
37860;BME280;23698;52.014;5.190;2023-05-12T21:20:11;101965.66;;;17.33;100.00
37860;BME280;23698;52.014;5.190;2023-05-12T21:22:58;101970.06;;;17.21;100.00
37860;BME280;23698;52.014;5.190;2023-05-12T21:25:44;101979.38;;;17.40;100.00
37860;BME280;23698;52.014;5.190;2023-05-12T21:28:30;101976.19;;;17.36;100.00
37860;BME280;23698;52.014;5.190;2023-05-12T21:31:18;101985.47;;;17.35;100.00
37860;BME280;23698;52.014;5.190;2023-05-12T21:34:04;101981.88;;;17.28;100.00
37860;BME280;23698;52.014;5.190;2023-05-12T21:36:51;101986.31;;;17.35;100.00
37860;BME280;23698;52.014;5.190;2023-05-12T21:39:38;101993.06;;;17.46;100.00
37860;BME280;23698;52.014;5.190;2023-05-12T21:42:25;101994.97;;;17.46;100.00
37860;BME280;23698;52.014;5.190;2023-05-12T21:45:11;101991.16;;;17.20;100.00
37860;BME280;23698;52.014;5.190;2023-05-12T21:47:59;102001.66;;;17.10;100.00
37860;BME280;23698;52.014;5.190;2023-05-12T21:50:55;101999.97;;;17.09;100.00
37860;BME280;23698;52.014;5.190;2023-05-12T21:53:42;102002.28;;;16.98;100.00
37860;BME280;23698;52.014;5.190;2023-05-12T21:56:28;101999.63;;;16.77;100.00
37860;BME280;23698;52.014;5.190;2023-05-12T21:59:14;102001.25;;;16.65;100.00
37860;BME280;23698;52.014;5.190;2023-05-12T22:02:01;102004.16;;;16.56;100.00
37860;BME280;23698;52.014;5.190;2023-05-12T22:04:49;101997.88;;;16.63;100.00
37860;BME280;23698;52.014;5.190;2023-05-12T22:07:35;102002.09;;;16.65;100.00
37860;BME280;23698;52.014;5.190;2023-05-12T22:10:21;102005.06;;;16.64;100.00
37860;BME280;23698;52.014;5.190;2023-05-12T22:13:08;102011.44;;;16.77;100.00
